Flight Track Log - Related Links

Times and Time Zones

All times are in EDT time to prevent confusion due to time zone crossing. See the SKW6377 flight status page for this flight to view local times or setup timezone preferences in your user account.

Time Position Orientation Groundspeed Altitude Reporting Facility
EDT Latitude Longitude Course Direction KTS MPH feet Rate Location/Type
Sun 01:24:15 PM 39.9500 -104.6833 346° North 218 251 7,700  Level Denver TRACON
Sun 01:25:09 PM 40.0097 -104.6647 13° North 256 295 9,200 2,276 Climbing Denver Center
Sun 01:26:00 PM 40.1659 -104.7714 347° North  Level FlightAware Approximate
Sun 01:26:11 PM 40.0947 -104.6414 12° North 289 333 12,100  Level Denver Center
Sun 01:27:00 PM 40.2720 -104.8032 347° North  Level FlightAware Approximate
Sun 01:27:13 PM 40.1803 -104.6161 13° North 313 360 14,000  Level Denver Center
Sun 01:28:00 PM 40.3777 -104.8370 346° North  Level FlightAware Approximate
Sun 01:28:15 PM 40.2736 -104.6111 North 330 380 16,600  Level Denver Center
Sun 01:29:00 PM 40.4832 -104.8722 346° North  Level FlightAware Approximate
Sun 01:29:17 PM 40.3653 -104.6517 341° North 325 374 18,500  Level Denver Center
Sun 01:30:19 PM 40.4497 -104.7103 332° Northwest 342 394 20,300 1,680 Climbing Denver Center
Sun 01:31:22 PM 40.5392 -104.7744 331° Northwest 345 397 22,000 1,584 Climbing Denver Center
Sun 01:32:24 PM 40.6278 -104.8331 333° Northwest 356 410 23,600 1,500 Climbing Denver Center
Sun 01:33:26 PM 40.7203 -104.9003 331° Northwest 356 410 25,100 1,161 Climbing Denver Center
Sun 01:34:28 PM 40.8083 -104.9569 334° Northwest 350 403 26,000 435 Climbing Denver Center
Sun 01:35:30 PM 40.9033 -105.0222 333° Northwest 377 434 26,000  Level Denver Center
Sun 01:36:32 PM 41.0014 -105.0908 332° Northwest 391 450 26,000  Level Denver Center
Sun 01:37:34 PM 41.1097 -105.1672 332° Northwest 398 458 26,000  Level Denver Center
Sun 01:38:36 PM 41.2044 -105.2344 332° Northwest 401 461 26,000  Level Denver Center
Sun 01:39:38 PM 41.3103 -105.3069 333° Northwest 386 444 26,000  Level Denver Center
Sun 01:40:40 PM 41.3992 -105.3697 332° Northwest 380 437 26,000  Level Denver Center
Sun 01:41:42 PM 41.5022 -105.4433 332° Northwest 377 434 26,000  Level Denver Center
Sun 01:42:44 PM 41.5906 -105.5058 332° Northwest 376 433 26,000  Level Denver Center
Sun 01:43:46 PM 41.6933 -105.5786 332° Northwest 375 432 26,000  Level Denver Center
Sun 01:44:48 PM 41.7781 -105.6400 332° Northwest 364 419 26,000  Level Denver Center
Sun 01:45:50 PM 41.8653 -105.7031 332° Northwest 370 426 26,000  Level Denver Center
Sun 01:46:52 PM 41.9697 -105.7761 333° Northwest 374 430 26,000  Level Denver Center
Sun 01:47:54 PM 42.0592 -105.8408 332° Northwest 379 436 26,000 -1,452 Level Denver Center
Sun 01:48:56 PM 42.1589 -105.9144 331° Northwest 370 426 23,000 -2,855 Descending Denver Center
Sun 01:49:58 PM 42.2475 -105.9775 332° Northwest 373 429 20,100 -3,000 Descending Denver Center
Sun 01:51:00 PM 42.3467 -106.0489 332° Northwest 366 421 16,800 -2,468 Descending Denver Center
Sun 01:52:02 PM 42.4275 -106.1100 331° Northwest 359 413 15,000 -871 Descending Denver Center
Sun 01:53:04 PM 42.5125 -106.1714 332° Northwest 335 386 15,000 -726 Level Denver Center
Sun 01:54:06 PM 42.5839 -106.2233 332° Northwest 318 366 13,500 -1,584 Descending Denver Center
Sun 01:55:09 PM 42.6653 -106.2811 332° Northwest 305 351 11,700 -1,680 Descending Denver Center
Sun 01:56:11 PM 42.7328 -106.3339 330° Northwest 299 344 10,000 -1,113 Descending Denver Center
Sun 01:57:13 PM 42.7950 -106.3822 330° Northwest 250 288 9,400 -919 Descending Denver Center
Sun 01:58:15 PM 42.8467 -106.4194 332° Northwest 226 260 8,100 -1,258 Descending Denver Center

Login

Don't have an account? Register now (free) for customized features, flight alerts, and more!